sensor_id;sensor_type;location;lat;lon;timestamp;P1;durP1;ratioP1;P2;durP2;ratioP2
68108;SDS011;54893;49.864;19.084;2023-11-19T00:03:40;55.13;;;16.60;;
68108;SDS011;54893;49.864;19.084;2023-11-19T00:08:41;46.13;;;16.40;;
68108;SDS011;54893;49.864;19.084;2023-11-19T00:13:41;49.33;;;16.43;;
68108;SDS011;54893;49.864;19.084;2023-11-19T00:18:41;44.40;;;15.07;;
68108;SDS011;54893;49.864;19.084;2023-11-19T00:23:42;42.20;;;15.07;;
68108;SDS011;54893;49.864;19.084;2023-11-19T00:28:42;49.23;;;17.50;;
68108;SDS011;54893;49.864;19.084;2023-11-19T00:33:43;48.53;;;15.43;;
68108;SDS011;54893;49.864;19.084;2023-11-19T00:38:44;44.67;;;15.10;;
68108;SDS011;54893;49.864;19.084;2023-11-19T00:43:44;52.23;;;16.90;;
68108;SDS011;54893;49.864;19.084;2023-11-19T00:48:44;43.83;;;14.73;;
68108;SDS011;54893;49.864;19.084;2023-11-19T00:53:47;45.90;;;15.75;;
68108;SDS011;54893;49.864;19.084;2023-11-19T00:58:47;39.90;;;14.47;;
68108;SDS011;54893;49.864;19.084;2023-11-19T01:03:48;38.97;;;12.97;;
68108;SDS011;54893;49.864;19.084;2023-11-19T01:08:48;40.80;;;13.73;;
68108;SDS011;54893;49.864;19.084;2023-11-19T01:13:48;41.33;;;14.70;;
68108;SDS011;54893;49.864;19.084;2023-11-19T01:18:49;36.83;;;12.05;;
68108;SDS011;54893;49.864;19.084;2023-11-19T01:23:50;38.33;;;12.40;;
68108;SDS011;54893;49.864;19.084;2023-11-19T01:28:50;34.30;;;12.00;;
68108;SDS011;54893;49.864;19.084;2023-11-19T01:33:52;37.67;;;13.93;;
68108;SDS011;54893;49.864;19.084;2023-11-19T01:38:53;39.43;;;13.33;;
68108;SDS011;54893;49.864;19.084;2023-11-19T01:43:53;42.07;;;14.97;;
68108;SDS011;54893;49.864;19.084;2023-11-19T01:48:54;40.83;;;14.88;;
68108;SDS011;54893;49.864;19.084;2023-11-19T01:53:55;40.67;;;13.83;;
68108;SDS011;54893;49.864;19.084;2023-11-19T01:58:57;44.13;;;14.07;;
68108;SDS011;54893;49.864;19.084;2023-11-19T02:03:58;37.73;;;13.37;;
68108;SDS011;54893;49.864;19.084;2023-11-19T02:08:59;42.23;;;14.93;;
68108;SDS011;54893;49.864;19.084;2023-11-19T02:13:59;54.83;;;18.10;;
68108;SDS011;54893;49.864;19.084;2023-11-19T02:18:59;64.90;;;20.87;;
68108;SDS011;54893;49.864;19.084;2023-11-19T02:24:01;64.97;;;21.93;;
68108;SDS011;54893;49.864;19.084;2023-11-19T02:29:07;75.60;;;23.73;;
68108;SDS011;54893;49.864;19.084;2023-11-19T02:34:07;96.27;;;29.27;;
68108;SDS011;54893;49.864;19.084;2023-11-19T02:39:12;127.95;;;38.17;;
68108;SDS011;54893;49.864;19.084;2023-11-19T02:44:13;78.28;;;24.83;;
68108;SDS011;54893;49.864;19.084;2023-11-19T02:49:14;65.07;;;21.13;;
68108;SDS011;54893;49.864;19.084;2023-11-19T02:54:15;73.80;;;22.60;;
68108;SDS011;54893;49.864;19.084;2023-11-19T02:59:15;82.80;;;25.73;;
68108;SDS011;54893;49.864;19.084;2023-11-19T03:04:27;78.20;;;25.55;;
68108;SDS011;54893;49.864;19.084;2023-11-19T03:09:28;68.47;;;22.63;;
68108;SDS011;54893;49.864;19.084;2023-11-19T03:14:29;68.30;;;21.75;;
68108;SDS011;54893;49.864;19.084;2023-11-19T03:19:29;47.90;;;18.93;;
68108;SDS011;54893;49.864;19.084;2023-11-19T03:24:30;61.03;;;18.13;;
68108;SDS011;54893;49.864;19.084;2023-11-19T03:29:30;64.20;;;19.77;;
68108;SDS011;54893;49.864;19.084;2023-11-19T03:34:31;61.03;;;20.60;;
68108;SDS011;54893;49.864;19.084;2023-11-19T03:39:31;51.60;;;16.80;;
68108;SDS011;54893;49.864;19.084;2023-11-19T03:44:31;54.50;;;17.20;;
68108;SDS011;54893;49.864;19.084;2023-11-19T03:49:32;52.40;;;17.40;;
68108;SDS011;54893;49.864;19.084;2023-11-19T03:54:32;46.87;;;15.23;;
68108;SDS011;54893;49.864;19.084;2023-11-19T03:59:32;45.03;;;14.60;;
68108;SDS011;54893;49.864;19.084;2023-11-19T04:04:33;37.00;;;11.65;;
68108;SDS011;54893;49.864;19.084;2023-11-19T04:09:33;35.53;;;11.32;;
68108;SDS011;54893;49.864;19.084;2023-11-19T04:14:34;49.58;;;16.45;;
68108;SDS011;54893;49.864;19.084;2023-11-19T04:19:36;70.60;;;21.65;;
68108;SDS011;54893;49.864;19.084;2023-11-19T04:24:36;70.23;;;23.37;;
68108;SDS011;54893;49.864;19.084;2023-11-19T04:29:37;65.80;;;20.90;;
68108;SDS011;54893;49.864;19.084;2023-11-19T04:34:37;66.50;;;22.73;;
68108;SDS011;54893;49.864;19.084;2023-11-19T04:39:38;66.37;;;20.13;;
68108;SDS011;54893;49.864;19.084;2023-11-19T04:44:38;61.97;;;21.07;;
68108;SDS011;54893;49.864;19.084;2023-11-19T04:49:41;60.40;;;20.30;;
68108;SDS011;54893;49.864;19.084;2023-11-19T04:54:43;62.65;;;20.52;;
68108;SDS011;54893;49.864;19.084;2023-11-19T04:59:44;61.83;;;19.87;;
68108;SDS011;54893;49.864;19.084;2023-11-19T05:04:44;65.00;;;19.87;;
68108;SDS011;54893;49.864;19.084;2023-11-19T05:09:46;63.95;;;20.42;;
68108;SDS011;54893;49.864;19.084;2023-11-19T05:14:47;64.43;;;22.40;;
68108;SDS011;54893;49.864;19.084;2023-11-19T05:19:50;51.70;;;19.10;;
68108;SDS011;54893;49.864;19.084;2023-11-19T05:24:50;60.80;;;20.00;;
68108;SDS011;54893;49.864;19.084;2023-11-19T05:29:50;54.77;;;19.23;;
68108;SDS011;54893;49.864;19.084;2023-11-19T05:34:51;50.30;;;16.80;;
68108;SDS011;54893;49.864;19.084;2023-11-19T05:39:51;53.53;;;16.20;;
68108;SDS011;54893;49.864;19.084;2023-11-19T05:44:52;50.20;;;15.67;;
68108;SDS011;54893;49.864;19.084;2023-11-19T05:49:52;48.30;;;15.97;;
68108;SDS011;54893;49.864;19.084;2023-11-19T05:54:53;45.30;;;14.68;;
68108;SDS011;54893;49.864;19.084;2023-11-19T05:59:53;50.47;;;16.40;;
68108;SDS011;54893;49.864;19.084;2023-11-19T06:04:54;45.27;;;13.77;;
68108;SDS011;54893;49.864;19.084;2023-11-19T06:09:54;40.80;;;14.40;;
68108;SDS011;54893;49.864;19.084;2023-11-19T06:14:54;47.70;;;16.80;;
68108;SDS011;54893;49.864;19.084;2023-11-19T06:19:56;40.00;;;13.95;;
68108;SDS011;54893;49.864;19.084;2023-11-19T06:24:57;37.23;;;13.03;;
68108;SDS011;54893;49.864;19.084;2023-11-19T06:29:58;38.53;;;13.55;;
68108;SDS011;54893;49.864;19.084;2023-11-19T06:34:58;36.37;;;13.73;;
68108;SDS011;54893;49.864;19.084;2023-11-19T06:39:59;39.43;;;12.17;;
68108;SDS011;54893;49.864;19.084;2023-11-19T06:44:59;38.37;;;12.13;;
68108;SDS011;54893;49.864;19.084;2023-11-19T06:50:00;37.03;;;12.73;;
68108;SDS011;54893;49.864;19.084;2023-11-19T06:55:00;41.57;;;14.17;;
68108;SDS011;54893;49.864;19.084;2023-11-19T07:00:00;48.03;;;15.57;;
68108;SDS011;54893;49.864;19.084;2023-11-19T07:05:01;37.05;;;11.18;;
68108;SDS011;54893;49.864;19.084;2023-11-19T07:10:04;38.23;;;13.10;;
68108;SDS011;54893;49.864;19.084;2023-11-19T07:15:07;50.53;;;16.30;;
68108;SDS011;54893;49.864;19.084;2023-11-19T07:20:09;57.75;;;20.73;;
68108;SDS011;54893;49.864;19.084;2023-11-19T07:25:13;91.60;;;29.40;;
68108;SDS011;54893;49.864;19.084;2023-11-19T07:30:13;121.57;;;35.90;;
68108;SDS011;54893;49.864;19.084;2023-11-19T07:35:14;66.47;;;21.50;;
68108;SDS011;54893;49.864;19.084;2023-11-19T07:40:15;55.25;;;19.25;;
68108;SDS011;54893;49.864;19.084;2023-11-19T07:45:16;57.93;;;20.63;;
68108;SDS011;54893;49.864;19.084;2023-11-19T07:50:17;94.73;;;33.13;;
68108;SDS011;54893;49.864;19.084;2023-11-19T07:55:20;112.28;;;35.03;;
68108;SDS011;54893;49.864;19.084;2023-11-19T08:00:21;71.80;;;23.93;;
68108;SDS011;54893;49.864;19.084;2023-11-19T08:05:21;63.83;;;24.00;;
68108;SDS011;54893;49.864;19.084;2023-11-19T08:10:24;90.40;;;27.50;;
68108;SDS011;54893;49.864;19.084;2023-11-19T08:15:24;72.03;;;23.40;;
68108;SDS011;54893;49.864;19.084;2023-11-19T08:20:25;126.27;;;36.53;;
68108;SDS011;54893;49.864;19.084;2023-11-19T08:25:25;19.93;;;7.23;;
68108;SDS011;54893;49.864;19.084;2023-11-19T08:30:26;15.03;;;6.00;;
68108;SDS011;54893;49.864;19.084;2023-11-19T08:35:27;12.88;;;5.40;;
68108;SDS011;54893;49.864;19.084;2023-11-19T08:40:27;16.43;;;5.70;;
68108;SDS011;54893;49.864;19.084;2023-11-19T08:45:28;10.00;;;3.95;;
68108;SDS011;54893;49.864;19.084;2023-11-19T08:50:28;13.53;;;4.90;;
68108;SDS011;54893;49.864;19.084;2023-11-19T08:55:29;12.30;;;5.07;;
68108;SDS011;54893;49.864;19.084;2023-11-19T09:00:29;16.17;;;5.47;;
68108;SDS011;54893;49.864;19.084;2023-11-19T09:05:30;12.37;;;4.30;;
68108;SDS011;54893;49.864;19.084;2023-11-19T09:10:30;12.13;;;4.27;;
68108;SDS011;54893;49.864;19.084;2023-11-19T09:15:30;11.70;;;4.07;;
68108;SDS011;54893;49.864;19.084;2023-11-19T09:20:31;10.20;;;3.60;;
68108;SDS011;54893;49.864;19.084;2023-11-19T09:25:37;10.55;;;3.63;;
68108;SDS011;54893;49.864;19.084;2023-11-19T09:30:37;12.83;;;5.37;;
68108;SDS011;54893;49.864;19.084;2023-11-19T09:35:38;12.53;;;5.23;;
68108;SDS011;54893;49.864;19.084;2023-11-19T09:40:38;18.07;;;7.00;;
68108;SDS011;54893;49.864;19.084;2023-11-19T09:45:47;20.50;;;7.00;;
68108;SDS011;54893;49.864;19.084;2023-11-19T09:50:52;17.60;;;5.68;;
68108;SDS011;54893;49.864;19.084;2023-11-19T09:55:52;11.37;;;4.97;;
68108;SDS011;54893;49.864;19.084;2023-11-19T10:00:53;10.17;;;3.80;;
68108;SDS011;54893;49.864;19.084;2023-11-19T10:05:54;12.47;;;4.40;;
68108;SDS011;54893;49.864;19.084;2023-11-19T10:10:55;8.45;;;3.83;;
68108;SDS011;54893;49.864;19.084;2023-11-19T10:15:56;12.97;;;4.10;;
68108;SDS011;54893;49.864;19.084;2023-11-19T10:20:59;10.97;;;4.00;;
68108;SDS011;54893;49.864;19.084;2023-11-19T10:26:03;11.23;;;4.23;;
68108;SDS011;54893;49.864;19.084;2023-11-19T10:31:07;8.57;;;3.60;;
68108;SDS011;54893;49.864;19.084;2023-11-19T10:36:07;11.23;;;4.13;;
68108;SDS011;54893;49.864;19.084;2023-11-19T10:41:08;11.30;;;5.77;;
68108;SDS011;54893;49.864;19.084;2023-11-19T10:46:12;8.77;;;3.80;;
68108;SDS011;54893;49.864;19.084;2023-11-19T10:51:13;9.35;;;3.60;;
68108;SDS011;54893;49.864;19.084;2023-11-19T10:56:23;12.30;;;5.17;;
68108;SDS011;54893;49.864;19.084;2023-11-19T11:01:37;13.68;;;5.30;;
68108;SDS011;54893;49.864;19.084;2023-11-19T11:06:43;13.70;;;5.00;;
68108;SDS011;54893;49.864;19.084;2023-11-19T11:11:47;12.63;;;4.90;;
68108;SDS011;54893;49.864;19.084;2023-11-19T11:16:48;12.50;;;4.80;;
68108;SDS011;54893;49.864;19.084;2023-11-19T11:21:50;18.80;;;7.30;;
68108;SDS011;54893;49.864;19.084;2023-11-19T11:32:51;18.70;;;6.73;;
68108;SDS011;54893;49.864;19.084;2023-11-19T11:38:00;28.95;;;10.73;;
68108;SDS011;54893;49.864;19.084;2023-11-19T11:43:04;27.20;;;10.00;;
68108;SDS011;54893;49.864;19.084;2023-11-19T11:48:15;22.75;;;8.65;;
68108;SDS011;54893;49.864;19.084;2023-11-19T11:53:16;21.52;;;8.38;;
68108;SDS011;54893;49.864;19.084;2023-11-19T11:58:20;21.40;;;8.87;;
68108;SDS011;54893;49.864;19.084;2023-11-19T12:03:22;23.30;;;8.90;;
68108;SDS011;54893;49.864;19.084;2023-11-19T12:08:26;20.27;;;7.50;;
68108;SDS011;54893;49.864;19.084;2023-11-19T12:19:10;27.25;;;9.50;;
68108;SDS011;54893;49.864;19.084;2023-11-19T12:24:31;18.65;;;7.60;;
68108;SDS011;54893;49.864;19.084;2023-11-19T12:29:41;23.30;;;9.90;;
68108;SDS011;54893;49.864;19.084;2023-11-19T12:34:45;18.37;;;6.10;;
68108;SDS011;54893;49.864;19.084;2023-11-19T12:39:45;16.40;;;6.50;;
68108;SDS011;54893;49.864;19.084;2023-11-19T12:44:55;16.60;;;5.40;;
68108;SDS011;54893;49.864;19.084;2023-11-19T12:49:56;13.85;;;5.60;;
68108;SDS011;54893;49.864;19.084;2023-11-19T12:54:57;15.77;;;6.30;;
68108;SDS011;54893;49.864;19.084;2023-11-19T12:59:58;18.98;;;7.70;;
68108;SDS011;54893;49.864;19.084;2023-11-19T13:04:58;38.20;;;13.77;;
68108;SDS011;54893;49.864;19.084;2023-11-19T13:10:02;28.10;;;10.87;;
68108;SDS011;54893;49.864;19.084;2023-11-19T13:15:02;32.40;;;15.00;;
68108;SDS011;54893;49.864;19.084;2023-11-19T13:20:03;34.73;;;13.50;;
68108;SDS011;54893;49.864;19.084;2023-11-19T13:25:04;36.28;;;15.52;;
68108;SDS011;54893;49.864;19.084;2023-11-19T13:30:05;20.87;;;9.27;;
68108;SDS011;54893;49.864;19.084;2023-11-19T13:35:07;13.23;;;5.95;;
68108;SDS011;54893;49.864;19.084;2023-11-19T13:40:09;15.07;;;6.00;;
68108;SDS011;54893;49.864;19.084;2023-11-19T13:45:13;15.85;;;5.97;;
68108;SDS011;54893;49.864;19.084;2023-11-19T13:50:15;13.50;;;6.07;;
68108;SDS011;54893;49.864;19.084;2023-11-19T13:55:20;16.15;;;6.47;;
68108;SDS011;54893;49.864;19.084;2023-11-19T14:00:20;13.40;;;5.10;;
68108;SDS011;54893;49.864;19.084;2023-11-19T14:05:22;14.25;;;5.88;;
68108;SDS011;54893;49.864;19.084;2023-11-19T14:10:23;13.80;;;5.33;;
68108;SDS011;54893;49.864;19.084;2023-11-19T14:15:23;20.93;;;7.33;;
68108;SDS011;54893;49.864;19.084;2023-11-19T14:20:24;14.27;;;4.97;;
68108;SDS011;54893;49.864;19.084;2023-11-19T14:25:25;13.10;;;5.20;;
68108;SDS011;54893;49.864;19.084;2023-11-19T14:30:26;9.77;;;4.30;;
68108;SDS011;54893;49.864;19.084;2023-11-19T14:35:26;11.32;;;4.60;;
68108;SDS011;54893;49.864;19.084;2023-11-19T14:40:27;10.03;;;4.80;;
68108;SDS011;54893;49.864;19.084;2023-11-19T14:45:27;11.90;;;3.40;;
68108;SDS011;54893;49.864;19.084;2023-11-19T14:50:27;7.57;;;2.80;;
68108;SDS011;54893;49.864;19.084;2023-11-19T14:55:28;12.73;;;3.93;;
68108;SDS011;54893;49.864;19.084;2023-11-19T15:00:28;9.33;;;3.70;;
68108;SDS011;54893;49.864;19.084;2023-11-19T15:05:29;7.43;;;3.80;;
68108;SDS011;54893;49.864;19.084;2023-11-19T15:10:29;6.97;;;2.70;;
68108;SDS011;54893;49.864;19.084;2023-11-19T15:15:29;8.37;;;3.20;;
68108;SDS011;54893;49.864;19.084;2023-11-19T15:20:30;7.43;;;3.63;;
68108;SDS011;54893;49.864;19.084;2023-11-19T15:25:31;7.90;;;3.43;;
68108;SDS011;54893;49.864;19.084;2023-11-19T15:30:31;9.10;;;3.10;;
68108;SDS011;54893;49.864;19.084;2023-11-19T15:35:32;6.47;;;2.90;;
68108;SDS011;54893;49.864;19.084;2023-11-19T15:40:32;8.37;;;2.90;;
68108;SDS011;54893;49.864;19.084;2023-11-19T15:45:33;9.83;;;3.33;;
68108;SDS011;54893;49.864;19.084;2023-11-19T15:50:37;6.95;;;3.28;;
68108;SDS011;54893;49.864;19.084;2023-11-19T15:55:37;8.07;;;3.40;;
68108;SDS011;54893;49.864;19.084;2023-11-19T16:00:38;7.70;;;2.87;;
68108;SDS011;54893;49.864;19.084;2023-11-19T16:05:41;7.32;;;3.13;;
68108;SDS011;54893;49.864;19.084;2023-11-19T16:10:41;9.38;;;3.90;;
68108;SDS011;54893;49.864;19.084;2023-11-19T16:15:43;9.50;;;3.37;;
68108;SDS011;54893;49.864;19.084;2023-11-19T16:20:44;7.23;;;2.77;;
68108;SDS011;54893;49.864;19.084;2023-11-19T16:25:44;9.93;;;3.88;;
68108;SDS011;54893;49.864;19.084;2023-11-19T16:30:45;10.30;;;3.97;;
68108;SDS011;54893;49.864;19.084;2023-11-19T16:35:45;8.20;;;3.20;;
68108;SDS011;54893;49.864;19.084;2023-11-19T16:40:46;10.33;;;4.50;;
68108;SDS011;54893;49.864;19.084;2023-11-19T16:45:50;8.70;;;3.40;;
68108;SDS011;54893;49.864;19.084;2023-11-19T16:50:50;8.50;;;3.03;;
68108;SDS011;54893;49.864;19.084;2023-11-19T16:55:51;5.87;;;2.70;;
68108;SDS011;54893;49.864;19.084;2023-11-19T17:00:51;7.80;;;3.07;;
68108;SDS011;54893;49.864;19.084;2023-11-19T17:05:51;8.83;;;2.93;;
68108;SDS011;54893;49.864;19.084;2023-11-19T17:10:52;8.57;;;2.70;;
68108;SDS011;54893;49.864;19.084;2023-11-19T17:15:54;8.30;;;3.22;;
68108;SDS011;54893;49.864;19.084;2023-11-19T17:20:55;13.32;;;4.25;;
68108;SDS011;54893;49.864;19.084;2023-11-19T17:25:58;11.13;;;4.22;;
68108;SDS011;54893;49.864;19.084;2023-11-19T17:30:59;9.10;;;3.70;;
68108;SDS011;54893;49.864;19.084;2023-11-19T17:36:00;10.27;;;4.18;;
68108;SDS011;54893;49.864;19.084;2023-11-19T17:41:01;10.10;;;3.53;;
68108;SDS011;54893;49.864;19.084;2023-11-19T17:46:02;10.63;;;4.55;;
68108;SDS011;54893;49.864;19.084;2023-11-19T17:51:06;9.60;;;3.50;;
68108;SDS011;54893;49.864;19.084;2023-11-19T17:56:06;9.67;;;3.40;;
68108;SDS011;54893;49.864;19.084;2023-11-19T18:01:07;10.47;;;4.53;;
68108;SDS011;54893;49.864;19.084;2023-11-19T18:06:14;11.57;;;4.50;;
68108;SDS011;54893;49.864;19.084;2023-11-19T18:11:17;8.02;;;3.42;;
68108;SDS011;54893;49.864;19.084;2023-11-19T18:16:20;10.87;;;4.27;;
68108;SDS011;54893;49.864;19.084;2023-11-19T18:21:20;11.57;;;4.43;;
68108;SDS011;54893;49.864;19.084;2023-11-19T18:26:21;13.60;;;5.87;;
68108;SDS011;54893;49.864;19.084;2023-11-19T18:31:21;12.33;;;4.87;;
68108;SDS011;54893;49.864;19.084;2023-11-19T18:36:22;13.17;;;3.90;;
68108;SDS011;54893;49.864;19.084;2023-11-19T18:41:22;13.37;;;4.40;;
68108;SDS011;54893;49.864;19.084;2023-11-19T18:46:22;12.57;;;5.57;;
68108;SDS011;54893;49.864;19.084;2023-11-19T18:51:23;10.17;;;3.90;;
68108;SDS011;54893;49.864;19.084;2023-11-19T18:56:23;11.93;;;5.57;;
68108;SDS011;54893;49.864;19.084;2023-11-19T19:01:24;13.93;;;4.20;;
68108;SDS011;54893;49.864;19.084;2023-11-19T19:06:26;14.85;;;4.55;;
68108;SDS011;54893;49.864;19.084;2023-11-19T19:11:29;12.60;;;4.40;;
68108;SDS011;54893;49.864;19.084;2023-11-19T19:16:29;13.30;;;4.67;;
68108;SDS011;54893;49.864;19.084;2023-11-19T19:21:30;9.15;;;4.28;;
68108;SDS011;54893;49.864;19.084;2023-11-19T19:26:31;9.70;;;3.67;;
68108;SDS011;54893;49.864;19.084;2023-11-19T19:31:32;10.90;;;4.03;;
68108;SDS011;54893;49.864;19.084;2023-11-19T19:36:32;12.82;;;4.25;;
68108;SDS011;54893;49.864;19.084;2023-11-19T19:41:33;11.73;;;4.00;;
68108;SDS011;54893;49.864;19.084;2023-11-19T19:46:33;9.23;;;4.00;;
68108;SDS011;54893;49.864;19.084;2023-11-19T19:51:33;9.33;;;3.90;;
68108;SDS011;54893;49.864;19.084;2023-11-19T19:56:34;10.90;;;3.20;;
68108;SDS011;54893;49.864;19.084;2023-11-19T20:01:35;9.73;;;3.58;;
68108;SDS011;54893;49.864;19.084;2023-11-19T20:06:36;7.37;;;3.40;;
68108;SDS011;54893;49.864;19.084;2023-11-19T20:11:39;11.05;;;3.58;;
68108;SDS011;54893;49.864;19.084;2023-11-19T20:16:43;8.57;;;3.58;;
68108;SDS011;54893;49.864;19.084;2023-11-19T20:21:43;6.77;;;3.20;;
68108;SDS011;54893;49.864;19.084;2023-11-19T20:26:44;8.20;;;3.10;;
68108;SDS011;54893;49.864;19.084;2023-11-19T20:31:46;9.82;;;3.10;;
68108;SDS011;54893;49.864;19.084;2023-11-19T20:36:48;9.63;;;3.33;;
68108;SDS011;54893;49.864;19.084;2023-11-19T20:41:48;8.07;;;3.20;;
68108;SDS011;54893;49.864;19.084;2023-11-19T20:46:49;8.93;;;3.43;;
68108;SDS011;54893;49.864;19.084;2023-11-19T20:51:50;9.00;;;3.20;;
68108;SDS011;54893;49.864;19.084;2023-11-19T20:56:51;7.73;;;3.33;;
68108;SDS011;54893;49.864;19.084;2023-11-19T21:01:51;8.10;;;3.37;;
68108;SDS011;54893;49.864;19.084;2023-11-19T21:06:51;8.27;;;3.60;;
68108;SDS011;54893;49.864;19.084;2023-11-19T21:11:52;8.53;;;3.50;;
68108;SDS011;54893;49.864;19.084;2023-11-19T21:16:52;10.57;;;3.90;;
68108;SDS011;54893;49.864;19.084;2023-11-19T21:21:53;8.10;;;4.10;;
68108;SDS011;54893;49.864;19.084;2023-11-19T21:26:53;8.77;;;3.60;;
68108;SDS011;54893;49.864;19.084;2023-11-19T21:31:54;8.30;;;3.43;;
68108;SDS011;54893;49.864;19.084;2023-11-19T21:36:54;10.00;;;4.30;;
68108;SDS011;54893;49.864;19.084;2023-11-19T21:41:55;8.27;;;3.75;;
68108;SDS011;54893;49.864;19.084;2023-11-19T21:46:56;11.53;;;4.00;;
68108;SDS011;54893;49.864;19.084;2023-11-19T21:51:58;10.90;;;4.00;;
68108;SDS011;54893;49.864;19.084;2023-11-19T21:56:58;14.57;;;3.37;;
68108;SDS011;54893;49.864;19.084;2023-11-19T22:01:59;11.47;;;4.10;;
68108;SDS011;54893;49.864;19.084;2023-11-19T22:06:59;11.87;;;4.90;;
68108;SDS011;54893;49.864;19.084;2023-11-19T22:12:00;7.63;;;2.90;;
68108;SDS011;54893;49.864;19.084;2023-11-19T22:17:00;10.10;;;3.60;;
68108;SDS011;54893;49.864;19.084;2023-11-19T22:22:01;13.17;;;4.47;;
68108;SDS011;54893;49.864;19.084;2023-11-19T22:27:01;10.00;;;3.47;;
68108;SDS011;54893;49.864;19.084;2023-11-19T22:32:01;8.10;;;3.60;;
68108;SDS011;54893;49.864;19.084;2023-11-19T22:37:02;11.07;;;3.80;;
68108;SDS011;54893;49.864;19.084;2023-11-19T22:42:04;11.77;;;3.15;;
68108;SDS011;54893;49.864;19.084;2023-11-19T22:47:05;11.75;;;3.70;;
68108;SDS011;54893;49.864;19.084;2023-11-19T22:52:07;11.03;;;3.57;;
68108;SDS011;54893;49.864;19.084;2023-11-19T22:57:08;8.40;;;3.13;;
68108;SDS011;54893;49.864;19.084;2023-11-19T23:02:08;11.10;;;3.43;;
68108;SDS011;54893;49.864;19.084;2023-11-19T23:07:09;11.13;;;3.72;;
68108;SDS011;54893;49.864;19.084;2023-11-19T23:12:09;11.97;;;3.40;;
68108;SDS011;54893;49.864;19.084;2023-11-19T23:17:10;9.80;;;3.37;;
68108;SDS011;54893;49.864;19.084;2023-11-19T23:22:16;9.15;;;4.10;;
68108;SDS011;54893;49.864;19.084;2023-11-19T23:27:17;11.07;;;4.30;;
68108;SDS011;54893;49.864;19.084;2023-11-19T23:32:17;7.90;;;3.17;;
68108;SDS011;54893;49.864;19.084;2023-11-19T23:37:18;10.38;;;4.03;;
68108;SDS011;54893;49.864;19.084;2023-11-19T23:42:19;7.67;;;3.47;;
68108;SDS011;54893;49.864;19.084;2023-11-19T23:47:22;11.87;;;4.27;;
68108;SDS011;54893;49.864;19.084;2023-11-19T23:52:23;12.67;;;4.40;;
68108;SDS011;54893;49.864;19.084;2023-11-19T23:57:23;9.67;;;3.80;;
